sensor_id;sensor_type;location;lat;lon;timestamp;P1;durP1;ratioP1;P2;durP2;ratioP2
74851;SDS011;63400;50.650;6.832;2023-04-03T00:02:01;3.17;;;1.48;;
74851;SDS011;63400;50.650;6.832;2023-04-03T00:04:27;3.85;;;1.45;;
74851;SDS011;63400;50.650;6.832;2023-04-03T00:06:52;3.60;;;1.33;;
74851;SDS011;63400;50.650;6.832;2023-04-03T00:09:18;1.85;;;1.23;;
74851;SDS011;63400;50.650;6.832;2023-04-03T00:11:43;3.35;;;1.63;;
74851;SDS011;63400;50.650;6.832;2023-04-03T00:14:08;3.08;;;1.20;;
74851;SDS011;63400;50.650;6.832;2023-04-03T00:16:34;2.20;;;1.10;;
74851;SDS011;63400;50.650;6.832;2023-04-03T00:18:59;3.30;;;1.52;;
74851;SDS011;63400;50.650;6.832;2023-04-03T00:21:25;3.08;;;1.40;;
74851;SDS011;63400;50.650;6.832;2023-04-03T00:23:51;3.88;;;1.30;;
74851;SDS011;63400;50.650;6.832;2023-04-03T00:26:16;4.05;;;1.60;;
74851;SDS011;63400;50.650;6.832;2023-04-03T00:28:41;4.30;;;1.27;;
74851;SDS011;63400;50.650;6.832;2023-04-03T00:31:07;2.22;;;1.48;;
74851;SDS011;63400;50.650;6.832;2023-04-03T00:33:32;2.72;;;1.38;;
74851;SDS011;63400;50.650;6.832;2023-04-03T00:35:58;2.85;;;1.55;;
74851;SDS011;63400;50.650;6.832;2023-04-03T00:38:23;2.83;;;1.65;;
74851;SDS011;63400;50.650;6.832;2023-04-03T00:40:48;6.47;;;2.40;;
74851;SDS011;63400;50.650;6.832;2023-04-03T00:43:16;3.78;;;1.77;;
74851;SDS011;63400;50.650;6.832;2023-04-03T00:45:49;2.55;;;1.73;;
74851;SDS011;63400;50.650;6.832;2023-04-03T00:48:29;3.42;;;1.63;;
74851;SDS011;63400;50.650;6.832;2023-04-03T00:50:57;2.67;;;1.15;;
74851;SDS011;63400;50.650;6.832;2023-04-03T00:53:28;4.03;;;1.83;;
74851;SDS011;63400;50.650;6.832;2023-04-03T00:56:06;2.92;;;1.67;;
74851;SDS011;63400;50.650;6.832;2023-04-03T00:58:35;4.32;;;1.65;;
74851;SDS011;63400;50.650;6.832;2023-04-03T01:01:03;2.47;;;1.55;;
74851;SDS011;63400;50.650;6.832;2023-04-03T01:03:30;2.30;;;1.42;;
74851;SDS011;63400;50.650;6.832;2023-04-03T01:05:56;2.92;;;1.88;;
74851;SDS011;63400;50.650;6.832;2023-04-03T01:08:21;3.80;;;1.15;;
74851;SDS011;63400;50.650;6.832;2023-04-03T01:10:47;4.05;;;1.48;;
74851;SDS011;63400;50.650;6.832;2023-04-03T01:13:20;2.40;;;1.33;;
74851;SDS011;63400;50.650;6.832;2023-04-03T01:15:50;3.88;;;1.52;;
74851;SDS011;63400;50.650;6.832;2023-04-03T01:18:16;3.08;;;1.35;;
74851;SDS011;63400;50.650;6.832;2023-04-03T01:25:46;4.35;;;1.85;;
74851;SDS011;63400;50.650;6.832;2023-04-03T01:28:17;3.38;;;1.40;;
74851;SDS011;63400;50.650;6.832;2023-04-03T01:33:25;4.43;;;1.17;;
74851;SDS011;63400;50.650;6.832;2023-04-03T01:35:50;3.35;;;1.48;;
74851;SDS011;63400;50.650;6.832;2023-04-03T01:38:16;3.17;;;1.48;;
74851;SDS011;63400;50.650;6.832;2023-04-03T01:40:41;5.45;;;1.77;;
74851;SDS011;63400;50.650;6.832;2023-04-03T01:43:07;3.78;;;1.73;;
74851;SDS011;63400;50.650;6.832;2023-04-03T01:45:32;3.13;;;1.52;;
74851;SDS011;63400;50.650;6.832;2023-04-03T01:47:58;3.47;;;2.00;;
74851;SDS011;63400;50.650;6.832;2023-04-03T01:50:23;2.83;;;1.40;;
74851;SDS011;63400;50.650;6.832;2023-04-03T01:52:49;5.20;;;1.50;;
74851;SDS011;63400;50.650;6.832;2023-04-03T01:55:14;5.30;;;1.85;;
74851;SDS011;63400;50.650;6.832;2023-04-03T01:57:40;3.05;;;1.40;;
74851;SDS011;63400;50.650;6.832;2023-04-03T02:00:05;4.70;;;1.55;;
74851;SDS011;63400;50.650;6.832;2023-04-03T02:02:32;2.50;;;1.52;;
74851;SDS011;63400;50.650;6.832;2023-04-03T02:04:58;3.85;;;1.95;;
74851;SDS011;63400;50.650;6.832;2023-04-03T02:07:23;2.47;;;1.65;;
74851;SDS011;63400;50.650;6.832;2023-04-03T02:09:49;3.28;;;1.90;;
74851;SDS011;63400;50.650;6.832;2023-04-03T02:12:14;3.42;;;1.50;;
74851;SDS011;63400;50.650;6.832;2023-04-03T02:14:39;3.25;;;1.63;;
74851;SDS011;63400;50.650;6.832;2023-04-03T02:17:05;3.47;;;1.85;;
74851;SDS011;63400;50.650;6.832;2023-04-03T02:19:33;5.38;;;1.75;;
74851;SDS011;63400;50.650;6.832;2023-04-03T02:22:00;2.90;;;1.25;;
74851;SDS011;63400;50.650;6.832;2023-04-03T02:24:26;3.10;;;1.60;;
74851;SDS011;63400;50.650;6.832;2023-04-03T02:26:52;2.72;;;2.33;;
74851;SDS011;63400;50.650;6.832;2023-04-03T02:29:17;4.13;;;1.55;;
74851;SDS011;63400;50.650;6.832;2023-04-03T02:31:43;3.88;;;1.73;;
74851;SDS011;63400;50.650;6.832;2023-04-03T02:34:08;2.92;;;1.40;;
74851;SDS011;63400;50.650;6.832;2023-04-03T02:36:33;3.25;;;1.63;;
74851;SDS011;63400;50.650;6.832;2023-04-03T02:38:59;2.67;;;0.88;;
74851;SDS011;63400;50.650;6.832;2023-04-03T02:41:24;4.35;;;1.85;;
74851;SDS011;63400;50.650;6.832;2023-04-03T02:43:52;2.55;;;1.25;;
74851;SDS011;63400;50.650;6.832;2023-04-03T02:46:18;3.42;;;1.38;;
74851;SDS011;63400;50.650;6.832;2023-04-03T02:48:43;3.10;;;2.40;;
74851;SDS011;63400;50.650;6.832;2023-04-03T02:51:08;3.92;;;1.70;;
74851;SDS011;63400;50.650;6.832;2023-04-03T02:53:34;3.85;;;1.50;;
74851;SDS011;63400;50.650;6.832;2023-04-03T02:55:59;3.17;;;1.77;;
74851;SDS011;63400;50.650;6.832;2023-04-03T02:58:24;4.80;;;1.92;;
74851;SDS011;63400;50.650;6.832;2023-04-03T03:00:50;3.10;;;1.75;;
74851;SDS011;63400;50.650;6.832;2023-04-03T03:03:15;3.17;;;1.80;;
74851;SDS011;63400;50.650;6.832;2023-04-03T03:05:40;4.03;;;1.40;;
74851;SDS011;63400;50.650;6.832;2023-04-03T03:08:06;4.65;;;1.88;;
74851;SDS011;63400;50.650;6.832;2023-04-03T03:10:31;3.83;;;1.30;;
74851;SDS011;63400;50.650;6.832;2023-04-03T03:12:57;2.80;;;1.20;;
74851;SDS011;63400;50.650;6.832;2023-04-03T03:15:22;5.30;;;1.85;;
74851;SDS011;63400;50.650;6.832;2023-04-03T03:17:47;4.00;;;1.92;;
74851;SDS011;63400;50.650;6.832;2023-04-03T03:20:13;3.28;;;1.67;;
74851;SDS011;63400;50.650;6.832;2023-04-03T03:22:41;5.43;;;2.05;;
74851;SDS011;63400;50.650;6.832;2023-04-03T03:25:07;3.85;;;1.55;;
74851;SDS011;63400;50.650;6.832;2023-04-03T03:27:32;5.05;;;2.20;;
74851;SDS011;63400;50.650;6.832;2023-04-03T03:29:58;4.32;;;1.58;;
74851;SDS011;63400;50.650;6.832;2023-04-03T03:32:23;5.03;;;2.00;;
74851;SDS011;63400;50.650;6.832;2023-04-03T03:34:49;4.95;;;2.15;;
74851;SDS011;63400;50.650;6.832;2023-04-03T03:37:15;3.85;;;2.47;;
74851;SDS011;63400;50.650;6.832;2023-04-03T03:39:40;5.93;;;2.85;;
74851;SDS011;63400;50.650;6.832;2023-04-03T03:42:05;5.32;;;2.67;;
74851;SDS011;63400;50.650;6.832;2023-04-03T03:44:31;5.30;;;2.67;;
74851;SDS011;63400;50.650;6.832;2023-04-03T03:46:56;3.85;;;1.60;;
74851;SDS011;63400;50.650;6.832;2023-04-03T03:49:21;5.93;;;3.13;;
74851;SDS011;63400;50.650;6.832;2023-04-03T03:51:47;4.00;;;1.85;;
74851;SDS011;63400;50.650;6.832;2023-04-03T03:54:12;3.63;;;1.52;;
74851;SDS011;63400;50.650;6.832;2023-04-03T03:56:38;3.63;;;1.55;;
74851;SDS011;63400;50.650;6.832;2023-04-03T03:59:03;2.67;;;2.10;;
74851;SDS011;63400;50.650;6.832;2023-04-03T04:01:29;4.10;;;1.30;;
74851;SDS011;63400;50.650;6.832;2023-04-03T04:03:55;4.15;;;2.05;;
74851;SDS011;63400;50.650;6.832;2023-04-03T04:06:20;5.78;;;2.60;;
74851;SDS011;63400;50.650;6.832;2023-04-03T04:08:46;4.53;;;1.83;;
74851;SDS011;63400;50.650;6.832;2023-04-03T04:11:11;8.43;;;1.98;;
74851;SDS011;63400;50.650;6.832;2023-04-03T04:13:37;2.40;;;1.65;;
74851;SDS011;63400;50.650;6.832;2023-04-03T04:16:02;2.42;;;1.23;;
74851;SDS011;63400;50.650;6.832;2023-04-03T04:18:28;5.07;;;2.25;;
74851;SDS011;63400;50.650;6.832;2023-04-03T04:20:53;2.92;;;1.63;;
74851;SDS011;63400;50.650;6.832;2023-04-03T04:23:19;3.53;;;1.45;;
74851;SDS011;63400;50.650;6.832;2023-04-03T04:25:45;4.60;;;2.25;;
74851;SDS011;63400;50.650;6.832;2023-04-03T04:28:11;3.20;;;1.27;;
74851;SDS011;63400;50.650;6.832;2023-04-03T04:30:36;4.38;;;1.63;;
74851;SDS011;63400;50.650;6.832;2023-04-03T04:33:02;3.95;;;1.20;;
74851;SDS011;63400;50.650;6.832;2023-04-03T04:35:27;4.43;;;1.30;;
74851;SDS011;63400;50.650;6.832;2023-04-03T04:37:53;2.88;;;1.20;;
74851;SDS011;63400;50.650;6.832;2023-04-03T04:40:18;4.03;;;1.10;;
74851;SDS011;63400;50.650;6.832;2023-04-03T04:42:44;5.57;;;2.35;;
74851;SDS011;63400;50.650;6.832;2023-04-03T04:45:09;5.88;;;1.48;;
74851;SDS011;63400;50.650;6.832;2023-04-03T04:47:35;3.05;;;1.50;;
74851;SDS011;63400;50.650;6.832;2023-04-03T04:50:00;3.10;;;1.35;;
74851;SDS011;63400;50.650;6.832;2023-04-03T04:52:26;3.72;;;1.80;;
74851;SDS011;63400;50.650;6.832;2023-04-03T04:54:51;4.88;;;2.38;;
74851;SDS011;63400;50.650;6.832;2023-04-03T04:57:17;3.00;;;1.58;;
74851;SDS011;63400;50.650;6.832;2023-04-03T04:59:42;5.10;;;2.13;;
74851;SDS011;63400;50.650;6.832;2023-04-03T05:02:07;3.88;;;2.15;;
74851;SDS011;63400;50.650;6.832;2023-04-03T05:04:33;3.63;;;1.52;;
74851;SDS011;63400;50.650;6.832;2023-04-03T05:06:58;2.25;;;1.13;;
74851;SDS011;63400;50.650;6.832;2023-04-03T05:09:24;6.05;;;1.77;;
74851;SDS011;63400;50.650;6.832;2023-04-03T05:11:49;3.83;;;1.63;;
74851;SDS011;63400;50.650;6.832;2023-04-03T05:14:15;4.82;;;1.40;;
74851;SDS011;63400;50.650;6.832;2023-04-03T05:16:40;4.88;;;2.13;;
74851;SDS011;63400;50.650;6.832;2023-04-03T05:19:06;4.68;;;1.38;;
74851;SDS011;63400;50.650;6.832;2023-04-03T05:21:31;4.50;;;1.30;;
74851;SDS011;63400;50.650;6.832;2023-04-03T05:24:00;7.28;;;2.15;;
74851;SDS011;63400;50.650;6.832;2023-04-03T05:26:27;4.45;;;1.60;;
74851;SDS011;63400;50.650;6.832;2023-04-03T05:28:54;4.15;;;1.98;;
74851;SDS011;63400;50.650;6.832;2023-04-03T05:31:19;4.20;;;2.40;;
74851;SDS011;63400;50.650;6.832;2023-04-03T05:33:45;3.30;;;1.92;;
74851;SDS011;63400;50.650;6.832;2023-04-03T05:36:11;3.78;;;2.35;;
74851;SDS011;63400;50.650;6.832;2023-04-03T05:38:37;5.20;;;1.75;;
74851;SDS011;63400;50.650;6.832;2023-04-03T05:41:03;4.22;;;2.13;;
74851;SDS011;63400;50.650;6.832;2023-04-03T05:43:28;4.30;;;1.70;;
74851;SDS011;63400;50.650;6.832;2023-04-03T05:45:54;3.00;;;1.88;;
74851;SDS011;63400;50.650;6.832;2023-04-03T05:48:19;5.80;;;2.10;;
74851;SDS011;63400;50.650;6.832;2023-04-03T05:50:45;3.88;;;2.47;;
74851;SDS011;63400;50.650;6.832;2023-04-03T05:53:14;4.15;;;1.63;;
74851;SDS011;63400;50.650;6.832;2023-04-03T05:55:47;3.35;;;1.83;;
74851;SDS011;63400;50.650;6.832;2023-04-03T05:58:12;2.58;;;1.50;;
74851;SDS011;63400;50.650;6.832;2023-04-03T06:00:38;5.47;;;2.22;;
74851;SDS011;63400;50.650;6.832;2023-04-03T06:03:03;3.92;;;1.85;;
74851;SDS011;63400;50.650;6.832;2023-04-03T06:05:30;3.85;;;2.05;;
74851;SDS011;63400;50.650;6.832;2023-04-03T06:07:55;4.25;;;1.83;;
74851;SDS011;63400;50.650;6.832;2023-04-03T06:10:22;2.35;;;1.13;;
74851;SDS011;63400;50.650;6.832;2023-04-03T06:12:47;3.55;;;1.20;;
74851;SDS011;63400;50.650;6.832;2023-04-03T06:15:13;2.92;;;1.35;;
74851;SDS011;63400;50.650;6.832;2023-04-03T06:17:38;3.40;;;1.35;;
74851;SDS011;63400;50.650;6.832;2023-04-03T06:20:04;2.45;;;1.15;;
74851;SDS011;63400;50.650;6.832;2023-04-03T06:22:29;3.60;;;1.17;;
74851;SDS011;63400;50.650;6.832;2023-04-03T06:24:56;3.35;;;0.98;;
74851;SDS011;63400;50.650;6.832;2023-04-03T06:27:21;3.53;;;0.90;;
74851;SDS011;63400;50.650;6.832;2023-04-03T06:29:47;5.38;;;1.83;;
74851;SDS011;63400;50.650;6.832;2023-04-03T06:32:13;2.92;;;0.70;;
74851;SDS011;63400;50.650;6.832;2023-04-03T06:34:39;2.83;;;0.68;;
74851;SDS011;63400;50.650;6.832;2023-04-03T06:37:05;3.10;;;0.82;;
74851;SDS011;63400;50.650;6.832;2023-04-03T06:39:31;2.28;;;0.50;;
74851;SDS011;63400;50.650;6.832;2023-04-03T06:41:56;3.45;;;0.40;;
74851;SDS011;63400;50.650;6.832;2023-04-03T06:44:21;3.15;;;0.57;;
74851;SDS011;63400;50.650;6.832;2023-04-03T06:46:47;1.95;;;0.52;;
74851;SDS011;63400;50.650;6.832;2023-04-03T06:49:13;4.82;;;0.75;;
74851;SDS011;63400;50.650;6.832;2023-04-03T06:51:39;1.83;;;0.40;;
74851;SDS011;63400;50.650;6.832;2023-04-03T06:54:05;1.30;;;0.43;;
74851;SDS011;63400;50.650;6.832;2023-04-03T06:56:31;1.58;;;0.40;;
74851;SDS011;63400;50.650;6.832;2023-04-03T06:58:57;2.00;;;0.63;;
74851;SDS011;63400;50.650;6.832;2023-04-03T07:01:23;1.20;;;0.32;;
74851;SDS011;63400;50.650;6.832;2023-04-03T07:03:51;1.77;;;0.82;;
74851;SDS011;63400;50.650;6.832;2023-04-03T07:06:17;2.28;;;0.43;;
74851;SDS011;63400;50.650;6.832;2023-04-03T07:08:43;2.50;;;0.60;;
74851;SDS011;63400;50.650;6.832;2023-04-03T07:11:09;2.42;;;0.20;;
74851;SDS011;63400;50.650;6.832;2023-04-03T07:13:35;2.70;;;0.43;;
74851;SDS011;63400;50.650;6.832;2023-04-03T07:16:01;4.03;;;0.38;;
74851;SDS011;63400;50.650;6.832;2023-04-03T07:20:53;2.72;;;0.55;;
74851;SDS011;63400;50.650;6.832;2023-04-03T07:23:19;2.63;;;0.40;;
74851;SDS011;63400;50.650;6.832;2023-04-03T07:25:45;2.50;;;0.30;;
74851;SDS011;63400;50.650;6.832;2023-04-03T07:28:11;1.52;;;0.38;;
74851;SDS011;63400;50.650;6.832;2023-04-03T07:30:50;3.42;;;0.45;;
74851;SDS011;63400;50.650;6.832;2023-04-03T07:33:18;3.10;;;0.47;;
74851;SDS011;63400;50.650;6.832;2023-04-03T07:35:46;2.25;;;0.43;;
74851;SDS011;63400;50.650;6.832;2023-04-03T07:38:12;1.10;;;0.40;;
74851;SDS011;63400;50.650;6.832;2023-04-03T07:40:38;1.60;;;0.43;;
74851;SDS011;63400;50.650;6.832;2023-04-03T07:43:03;2.80;;;0.77;;
74851;SDS011;63400;50.650;6.832;2023-04-03T07:45:30;1.80;;;0.40;;
74851;SDS011;63400;50.650;6.832;2023-04-03T07:47:56;2.92;;;0.47;;
74851;SDS011;63400;50.650;6.832;2023-04-03T07:50:21;2.00;;;0.47;;
74851;SDS011;63400;50.650;6.832;2023-04-03T07:52:47;2.33;;;0.40;;
74851;SDS011;63400;50.650;6.832;2023-04-03T07:55:13;1.80;;;0.68;;
74851;SDS011;63400;50.650;6.832;2023-04-03T07:57:38;1.88;;;0.43;;
74851;SDS011;63400;50.650;6.832;2023-04-03T08:00:04;3.03;;;0.25;;
74851;SDS011;63400;50.650;6.832;2023-04-03T08:02:30;1.95;;;0.50;;
74851;SDS011;63400;50.650;6.832;2023-04-03T08:04:57;3.20;;;0.32;;
74851;SDS011;63400;50.650;6.832;2023-04-03T08:07:23;1.77;;;0.20;;
74851;SDS011;63400;50.650;6.832;2023-04-03T08:09:48;1.92;;;0.45;;
74851;SDS011;63400;50.650;6.832;2023-04-03T08:12:14;1.77;;;0.22;;
74851;SDS011;63400;50.650;6.832;2023-04-03T08:14:40;2.17;;;0.30;;
74851;SDS011;63400;50.650;6.832;2023-04-03T08:17:05;2.00;;;0.50;;
74851;SDS011;63400;50.650;6.832;2023-04-03T08:19:34;1.67;;;0.22;;
74851;SDS011;63400;50.650;6.832;2023-04-03T08:22:00;2.05;;;0.20;;
74851;SDS011;63400;50.650;6.832;2023-04-03T08:24:28;0.88;;;0.20;;
74851;SDS011;63400;50.650;6.832;2023-04-03T08:26:53;1.80;;;0.17;;
74851;SDS011;63400;50.650;6.832;2023-04-03T08:29:19;1.98;;;0.63;;
74851;SDS011;63400;50.650;6.832;2023-04-03T08:31:46;1.92;;;0.10;;
74851;SDS011;63400;50.650;6.832;2023-04-03T08:34:12;3.78;;;0.40;;
74851;SDS011;63400;50.650;6.832;2023-04-03T08:36:38;2.10;;;0.10;;
74851;SDS011;63400;50.650;6.832;2023-04-03T08:39:04;1.55;;;0.20;;
74851;SDS011;63400;50.650;6.832;2023-04-03T08:41:39;3.95;;;0.50;;
74851;SDS011;63400;50.650;6.832;2023-04-03T08:49:17;3.05;;;0.43;;
74851;SDS011;63400;50.650;6.832;2023-04-03T08:52:08;1.73;;;0.25;;
74851;SDS011;63400;50.650;6.832;2023-04-03T08:57:12;2.58;;;0.30;;
74851;SDS011;63400;50.650;6.832;2023-04-03T08:59:38;2.60;;;0.40;;
74851;SDS011;63400;50.650;6.832;2023-04-03T09:02:12;2.28;;;0.38;;
74851;SDS011;63400;50.650;6.832;2023-04-03T09:04:52;2.83;;;0.20;;
74851;SDS011;63400;50.650;6.832;2023-04-03T09:07:22;2.00;;;0.22;;
74851;SDS011;63400;50.650;6.832;2023-04-03T09:09:53;0.90;;;0.13;;
74851;SDS011;63400;50.650;6.832;2023-04-03T09:15:01;2.35;;;0.60;;
74851;SDS011;63400;50.650;6.832;2023-04-03T09:17:35;2.50;;;0.20;;
74851;SDS011;63400;50.650;6.832;2023-04-03T09:20:12;2.13;;;0.20;;
74851;SDS011;63400;50.650;6.832;2023-04-03T09:22:41;1.85;;;0.20;;
74851;SDS011;63400;50.650;6.832;2023-04-03T09:27:40;1.88;;;0.40;;
74851;SDS011;63400;50.650;6.832;2023-04-03T09:30:06;1.80;;;0.30;;
74851;SDS011;63400;50.650;6.832;2023-04-03T09:32:38;2.47;;;0.35;;
74851;SDS011;63400;50.650;6.832;2023-04-03T09:35:04;2.75;;;0.30;;
74851;SDS011;63400;50.650;6.832;2023-04-03T09:37:44;1.65;;;0.20;;
74851;SDS011;63400;50.650;6.832;2023-04-03T09:42:52;2.22;;;0.20;;
74851;SDS011;63400;50.650;6.832;2023-04-03T09:45:29;4.47;;;0.35;;
74851;SDS011;63400;50.650;6.832;2023-04-03T09:48:04;2.30;;;0.20;;
74851;SDS011;63400;50.650;6.832;2023-04-03T09:53:28;2.00;;;0.30;;
74851;SDS011;63400;50.650;6.832;2023-04-03T09:55:59;2.33;;;0.45;;
74851;SDS011;63400;50.650;6.832;2023-04-03T09:58:44;2.45;;;0.22;;
74851;SDS011;63400;50.650;6.832;2023-04-03T10:09:19;2.88;;;0.60;;
74851;SDS011;63400;50.650;6.832;2023-04-03T10:11:56;2.13;;;0.38;;
74851;SDS011;63400;50.650;6.832;2023-04-03T10:14:24;2.28;;;0.20;;
74851;SDS011;63400;50.650;6.832;2023-04-03T10:16:56;2.58;;;0.13;;
74851;SDS011;63400;50.650;6.832;2023-04-03T10:40:39;2.65;;;0.25;;
74851;SDS011;63400;50.650;6.832;2023-04-03T10:54:36;3.45;;;0.30;;
74851;SDS011;63400;50.650;6.832;2023-04-03T10:57:05;2.58;;;0.20;;
74851;SDS011;63400;50.650;6.832;2023-04-03T10:59:32;1.80;;;0.25;;
74851;SDS011;63400;50.650;6.832;2023-04-03T11:02:05;2.33;;;0.20;;
74851;SDS011;63400;50.650;6.832;2023-04-03T11:04:34;3.78;;;0.45;;
74851;SDS011;63400;50.650;6.832;2023-04-03T11:07:02;1.38;;;0.22;;
74851;SDS011;63400;50.650;6.832;2023-04-03T11:09:34;2.78;;;0.30;;
74851;SDS011;63400;50.650;6.832;2023-04-03T11:12:13;3.30;;;0.40;;
74851;SDS011;63400;50.650;6.832;2023-04-03T11:14:42;1.67;;;0.40;;
74851;SDS011;63400;50.650;6.832;2023-04-03T11:17:18;2.13;;;0.20;;
74851;SDS011;63400;50.650;6.832;2023-04-03T11:19:54;3.45;;;0.30;;
74851;SDS011;63400;50.650;6.832;2023-04-03T11:22:27;2.83;;;0.45;;
74851;SDS011;63400;50.650;6.832;2023-04-03T11:25:24;1.58;;;0.30;;
74851;SDS011;63400;50.650;6.832;2023-04-03T11:27:55;2.08;;;0.20;;
74851;SDS011;63400;50.650;6.832;2023-04-03T11:30:30;1.38;;;0.20;;
74851;SDS011;63400;50.650;6.832;2023-04-03T11:33:15;1.45;;;0.13;;
74851;SDS011;63400;50.650;6.832;2023-04-03T11:35:43;2.58;;;0.50;;
74851;SDS011;63400;50.650;6.832;2023-04-03T11:38:10;1.60;;;0.30;;
74851;SDS011;63400;50.650;6.832;2023-04-03T11:40:42;3.05;;;0.43;;
74851;SDS011;63400;50.650;6.832;2023-04-03T11:43:26;1.50;;;0.10;;
74851;SDS011;63400;50.650;6.832;2023-04-03T11:50:56;1.58;;;0.28;;
74851;SDS011;63400;50.650;6.832;2023-04-03T12:16:25;2.03;;;0.30;;
74851;SDS011;63400;50.650;6.832;2023-04-03T12:42:39;5.05;;;0.95;;
74851;SDS011;63400;50.650;6.832;2023-04-03T12:45:22;4.05;;;0.70;;
74851;SDS011;63400;50.650;6.832;2023-04-03T12:47:49;4.10;;;0.57;;
74851;SDS011;63400;50.650;6.832;2023-04-03T12:50:23;2.28;;;0.80;;
74851;SDS011;63400;50.650;6.832;2023-04-03T12:53:01;2.30;;;0.50;;
74851;SDS011;63400;50.650;6.832;2023-04-03T12:55:31;2.38;;;0.50;;
74851;SDS011;63400;50.650;6.832;2023-04-03T12:57:57;2.85;;;0.50;;
74851;SDS011;63400;50.650;6.832;2023-04-03T13:00:38;2.55;;;0.85;;
74851;SDS011;63400;50.650;6.832;2023-04-03T13:03:05;3.72;;;0.68;;
74851;SDS011;63400;50.650;6.832;2023-04-03T13:05:31;2.75;;;0.52;;
74851;SDS011;63400;50.650;6.832;2023-04-03T13:07:59;1.95;;;0.80;;
74851;SDS011;63400;50.650;6.832;2023-04-03T13:10:29;2.65;;;0.65;;
74851;SDS011;63400;50.650;6.832;2023-04-03T13:12:57;3.30;;;1.08;;
74851;SDS011;63400;50.650;6.832;2023-04-03T13:15:28;3.28;;;0.50;;
74851;SDS011;63400;50.650;6.832;2023-04-03T13:18:05;3.20;;;1.17;;
74851;SDS011;63400;50.650;6.832;2023-04-03T13:20:46;3.90;;;0.85;;
74851;SDS011;63400;50.650;6.832;2023-04-03T13:23:12;2.85;;;0.73;;
74851;SDS011;63400;50.650;6.832;2023-04-03T13:25:40;2.00;;;0.85;;
74851;SDS011;63400;50.650;6.832;2023-04-03T13:28:09;3.20;;;1.25;;
74851;SDS011;63400;50.650;6.832;2023-04-03T13:30:37;2.40;;;0.90;;
74851;SDS011;63400;50.650;6.832;2023-04-03T13:33:05;1.98;;;0.60;;
74851;SDS011;63400;50.650;6.832;2023-04-03T13:35:43;3.55;;;1.05;;
74851;SDS011;63400;50.650;6.832;2023-04-03T13:40:47;3.03;;;1.15;;
74851;SDS011;63400;50.650;6.832;2023-04-03T13:43:18;2.45;;;0.85;;
74851;SDS011;63400;50.650;6.832;2023-04-03T13:46:19;2.40;;;0.90;;
74851;SDS011;63400;50.650;6.832;2023-04-03T13:48:50;2.58;;;0.93;;
74851;SDS011;63400;50.650;6.832;2023-04-03T13:58:54;3.28;;;0.70;;
74851;SDS011;63400;50.650;6.832;2023-04-03T14:01:32;1.88;;;0.60;;
74851;SDS011;63400;50.650;6.832;2023-04-03T14:04:01;2.63;;;1.08;;
74851;SDS011;63400;50.650;6.832;2023-04-03T14:06:34;2.80;;;0.50;;
74851;SDS011;63400;50.650;6.832;2023-04-03T14:09:00;2.22;;;0.70;;
74851;SDS011;63400;50.650;6.832;2023-04-03T14:11:28;2.97;;;1.85;;
74851;SDS011;63400;50.650;6.832;2023-04-03T14:13:55;2.25;;;1.58;;
74851;SDS011;63400;50.650;6.832;2023-04-03T14:16:21;2.45;;;0.60;;
74851;SDS011;63400;50.650;6.832;2023-04-03T14:18:48;2.80;;;0.80;;
74851;SDS011;63400;50.650;6.832;2023-04-03T14:21:15;2.85;;;0.80;;
74851;SDS011;63400;50.650;6.832;2023-04-03T14:23:43;3.53;;;1.17;;
74851;SDS011;63400;50.650;6.832;2023-04-03T14:26:30;2.15;;;1.13;;
74851;SDS011;63400;50.650;6.832;2023-04-03T14:28:55;2.17;;;0.90;;
74851;SDS011;63400;50.650;6.832;2023-04-03T14:31:21;2.47;;;1.00;;
74851;SDS011;63400;50.650;6.832;2023-04-03T14:33:47;3.05;;;1.20;;
74851;SDS011;63400;50.650;6.832;2023-04-03T14:36:31;2.53;;;0.75;;
74851;SDS011;63400;50.650;6.832;2023-04-03T14:38:57;2.38;;;1.48;;
74851;SDS011;63400;50.650;6.832;2023-04-03T14:41:24;3.85;;;1.08;;
74851;SDS011;63400;50.650;6.832;2023-04-03T14:43:51;3.28;;;1.00;;
74851;SDS011;63400;50.650;6.832;2023-04-03T14:46:18;2.13;;;0.98;;
74851;SDS011;63400;50.650;6.832;2023-04-03T14:48:46;4.30;;;1.30;;
74851;SDS011;63400;50.650;6.832;2023-04-03T14:51:12;5.65;;;1.58;;
74851;SDS011;63400;50.650;6.832;2023-04-03T14:53:38;2.83;;;1.02;;
74851;SDS011;63400;50.650;6.832;2023-04-03T14:56:27;3.47;;;1.42;;
74851;SDS011;63400;50.650;6.832;2023-04-03T14:58:56;3.70;;;0.88;;
74851;SDS011;63400;50.650;6.832;2023-04-03T15:01:23;2.75;;;0.85;;
74851;SDS011;63400;50.650;6.832;2023-04-03T15:03:49;1.50;;;0.63;;
74851;SDS011;63400;50.650;6.832;2023-04-03T15:06:15;3.85;;;1.10;;
74851;SDS011;63400;50.650;6.832;2023-04-03T15:08:40;3.10;;;1.13;;
74851;SDS011;63400;50.650;6.832;2023-04-03T15:11:07;3.22;;;0.80;;
74851;SDS011;63400;50.650;6.832;2023-04-03T15:13:33;2.75;;;0.98;;
74851;SDS011;63400;50.650;6.832;2023-04-03T15:15:59;2.75;;;1.15;;
74851;SDS011;63400;50.650;6.832;2023-04-03T15:18:25;3.80;;;1.13;;
74851;SDS011;63400;50.650;6.832;2023-04-03T15:20:52;3.75;;;0.90;;
74851;SDS011;63400;50.650;6.832;2023-04-03T15:23:18;2.67;;;1.20;;
74851;SDS011;63400;50.650;6.832;2023-04-03T15:25:44;3.28;;;1.23;;
74851;SDS011;63400;50.650;6.832;2023-04-03T15:28:13;3.88;;;0.82;;
74851;SDS011;63400;50.650;6.832;2023-04-03T15:30:45;4.85;;;0.80;;
74851;SDS011;63400;50.650;6.832;2023-04-03T15:33:10;3.47;;;1.15;;
74851;SDS011;63400;50.650;6.832;2023-04-03T15:35:35;3.17;;;0.95;;
74851;SDS011;63400;50.650;6.832;2023-04-03T15:38:01;2.38;;;1.13;;
74851;SDS011;63400;50.650;6.832;2023-04-03T15:40:26;2.90;;;1.17;;
74851;SDS011;63400;50.650;6.832;2023-04-03T15:42:52;2.83;;;0.75;;
74851;SDS011;63400;50.650;6.832;2023-04-03T15:45:17;2.35;;;1.33;;
74851;SDS011;63400;50.650;6.832;2023-04-03T15:47:43;3.40;;;1.38;;
74851;SDS011;63400;50.650;6.832;2023-04-03T15:50:08;3.30;;;0.80;;
74851;SDS011;63400;50.650;6.832;2023-04-03T15:52:34;2.30;;;0.77;;
74851;SDS011;63400;50.650;6.832;2023-04-03T15:55:01;2.53;;;1.20;;
74851;SDS011;63400;50.650;6.832;2023-04-03T15:57:26;4.18;;;0.85;;
74851;SDS011;63400;50.650;6.832;2023-04-03T15:59:52;3.67;;;0.90;;
74851;SDS011;63400;50.650;6.832;2023-04-03T16:02:18;3.55;;;1.02;;
74851;SDS011;63400;50.650;6.832;2023-04-03T16:04:43;2.45;;;0.50;;
74851;SDS011;63400;50.650;6.832;2023-04-03T16:07:09;2.40;;;0.88;;
74851;SDS011;63400;50.650;6.832;2023-04-03T16:09:34;2.22;;;1.55;;
74851;SDS011;63400;50.650;6.832;2023-04-03T16:12:00;3.15;;;1.35;;
74851;SDS011;63400;50.650;6.832;2023-04-03T16:14:26;3.92;;;0.65;;
74851;SDS011;63400;50.650;6.832;2023-04-03T16:16:53;2.60;;;0.82;;
74851;SDS011;63400;50.650;6.832;2023-04-03T16:19:18;1.85;;;0.68;;
74851;SDS011;63400;50.650;6.832;2023-04-03T16:21:45;2.78;;;0.47;;
74851;SDS011;63400;50.650;6.832;2023-04-03T16:24:12;2.25;;;0.90;;
74851;SDS011;63400;50.650;6.832;2023-04-03T16:26:38;2.40;;;0.75;;
74851;SDS011;63400;50.650;6.832;2023-04-03T16:29:03;2.80;;;1.13;;
74851;SDS011;63400;50.650;6.832;2023-04-03T16:31:30;3.45;;;0.65;;
74851;SDS011;63400;50.650;6.832;2023-04-03T16:33:57;1.75;;;0.70;;
74851;SDS011;63400;50.650;6.832;2023-04-03T16:36:23;2.60;;;1.13;;
74851;SDS011;63400;50.650;6.832;2023-04-03T16:38:49;2.60;;;0.90;;
74851;SDS011;63400;50.650;6.832;2023-04-03T16:41:15;3.42;;;1.17;;
74851;SDS011;63400;50.650;6.832;2023-04-03T16:43:40;1.88;;;0.43;;
74851;SDS011;63400;50.650;6.832;2023-04-03T16:46:05;2.42;;;0.93;;
74851;SDS011;63400;50.650;6.832;2023-04-03T16:48:31;2.90;;;0.93;;
74851;SDS011;63400;50.650;6.832;2023-04-03T16:50:56;2.58;;;1.08;;
74851;SDS011;63400;50.650;6.832;2023-04-03T16:53:22;3.20;;;0.90;;
74851;SDS011;63400;50.650;6.832;2023-04-03T16:55:48;2.50;;;0.93;;
74851;SDS011;63400;50.650;6.832;2023-04-03T16:58:14;3.08;;;1.13;;
74851;SDS011;63400;50.650;6.832;2023-04-03T17:00:40;3.13;;;0.30;;
74851;SDS011;63400;50.650;6.832;2023-04-03T17:03:06;1.65;;;0.40;;